Time;durP1;ratioP1;P1;durP2;ratioP2;P2;SDS_P1;SDS_P2;PMS_P1;PMS_P2;Temp;Humidity;BMP_temperature;BMP_pressure;BME280_temperature;BME280_humidity;BME280_pressure;Samples;Min_cycle;Max_cycle;Signal;HPM_P1;HPM_P2
2022/12/13 00:01:56;;;;;;;;;;;;;;;-10.32;75.55;100971.25;5092918;28;20383;-70
2022/12/13 00:04:22;;;;;;;;;;;;;;;-10.25;75.63;100964.09;5093637;28;19912;-71
2022/12/13 00:06:48;;;;;;;;;;;;;;;-10.17;75.21;100969.88;5094703;28;19912;-70
2022/12/13 00:09:14;;;;;;;;;;;;;;;-10.06;75.47;100960.91;5091970;28;19923;-70
2022/12/13 00:11:39;;;;;;;;;;;;;;;-10.07;75.34;100954.84;5094160;28;19920;-71
2022/12/13 00:14:05;;;;;;;;;;;;;;;-10.09;74.83;100948.84;5092989;28;20094;-71
2022/12/13 00:16:30;;;;;;;;;;;;;;;-10.08;75.55;100953.16;5093045;28;19916;-71
2022/12/13 00:18:57;;;;;;;;;;;;;;;-10.09;75.12;100946.25;5074475;28;19912;-71
2022/12/13 00:21:23;;;;;;;;;;;;;;;-10.10;75.15;100939.38;5102166;28;19934;-71
2022/12/13 00:23:49;;;;;;;;;;;;;;;-10.09;75.37;100942.81;5113344;28;20327;-71
2022/12/13 00:26:25;;;;;;;;;;;;;;;-10.10;75.16;100941.97;5113171;28;19947;-71
2022/12/13 00:28:51;;;;;;;;;;;;;;;-10.17;75.56;100932.69;5109693;28;19918;-71
2022/12/13 00:31:18;;;;;;;;;;;;;;;-10.28;75.41;100929.56;5114510;28;20010;-71
2022/12/13 00:33:44;;;;;;;;;;;;;;;-10.44;75.80;100927.47;5101132;28;20348;-71
2022/12/13 00:36:09;;;;;;;;;;;;;;;-10.56;75.91;100926.13;5094152;28;19923;-71
2022/12/13 00:38:34;;;;;;;;;;;;;;;-10.64;75.98;100919.47;5091146;28;19916;-71
2022/12/13 00:41:08;;;;;;;;;;;;;;;-10.75;76.39;100917.22;5088831;28;19920;-71
2022/12/13 00:43:33;;;;;;;;;;;;;;;-10.75;77.16;100912.03;5088953;28;19916;-71
2022/12/13 00:45:58;;;;;;;;;;;;;;;-10.81;77.00;100907.03;5073303;28;19970;-70
2022/12/13 00:48:24;;;;;;;;;;;;;;;-10.89;76.84;100893.44;5073459;28;19916;-70
2022/12/13 00:50:49;;;;;;;;;;;;;;;-10.91;77.02;100894.31;5072423;28;19962;-70
2022/12/13 00:53:14;;;;;;;;;;;;;;;-10.92;77.44;100897.84;5102622;28;19916;-70
2022/12/13 00:55:40;;;;;;;;;;;;;;;-10.97;77.53;100891.94;5098055;28;19916;-70
2022/12/13 00:58:05;;;;;;;;;;;;;;;-10.95;77.67;100890.13;5093568;28;20011;-70
2022/12/13 01:00:31;;;;;;;;;;;;;;;-10.91;76.90;100898.69;5093031;28;19916;-70
2022/12/13 01:02:57;;;;;;;;;;;;;;;-10.97;77.22;100896.28;5092273;28;19951;-70
2022/12/13 01:05:22;;;;;;;;;;;;;;;-11.08;77.64;100886.22;5093278;28;20011;-71
2022/12/13 01:07:47;;;;;;;;;;;;;;;-11.10;77.62;100881.06;5093498;28;19916;-71
2022/12/13 01:10:13;;;;;;;;;;;;;;;-11.17;77.90;100876.97;5093435;28;19916;-70
2022/12/13 01:12:38;;;;;;;;;;;;;;;-11.21;77.69;100888.31;5093377;28;19916;-70
2022/12/13 01:15:04;;;;;;;;;;;;;;;-11.28;77.60;100891.13;5092329;28;20348;-70
2022/12/13 01:17:29;;;;;;;;;;;;;;;-11.33;77.68;100893.84;5073168;28;20299;-71
2022/12/13 01:19:55;;;;;;;;;;;;;;;-11.29;78.07;100882.50;5076139;28;19919;-71
2022/12/13 01:22:20;;;;;;;;;;;;;;;-11.37;77.68;100880.13;5093614;28;19917;-70
2022/12/13 01:24:45;;;;;;;;;;;;;;;-11.45;77.86;100876.06;5099105;28;19923;-70
2022/12/13 01:27:10;;;;;;;;;;;;;;;-11.36;78.36;100871.47;5115756;28;19916;-71
2022/12/13 01:29:36;;;;;;;;;;;;;;;-11.22;77.54;100867.63;5096806;28;19912;-70
2022/12/13 01:32:02;;;;;;;;;;;;;;;-11.31;76.54;100869.59;5097722;28;20283;-69
2022/12/13 01:34:27;;;;;;;;;;;;;;;-11.46;77.06;100870.03;5097180;28;19912;-70
2022/12/13 01:36:53;;;;;;;;;;;;;;;-11.52;77.39;100867.59;5097670;28;20354;-70
2022/12/13 01:39:18;;;;;;;;;;;;;;;-11.58;77.88;100863.44;5097532;28;19912;-71
2022/12/13 01:41:45;;;;;;;;;;;;;;;-11.48;78.13;100871.81;5096669;28;20342;-71
2022/12/13 01:44:29;;;;;;;;;;;;;;;-11.52;78.14;100860.69;5096923;28;19937;-71
2022/12/13 01:46:54;;;;;;;;;;;;;;;-11.62;77.99;100853.22;5095664;28;20442;-71
2022/12/13 01:49:21;;;;;;;;;;;;;;;-11.58;78.33;100860.88;5095809;28;20005;-71
2022/12/13 01:51:51;;;;;;;;;;;;;;;-11.66;78.40;100854.19;5099577;28;20108;-70
2022/12/13 01:54:18;;;;;;;;;;;;;;;-11.63;78.85;100859.28;5113218;28;20374;-70
2022/12/13 01:56:48;;;;;;;;;;;;;;;-11.70;78.51;100845.66;5109234;28;19972;-70
2022/12/13 01:59:15;;;;;;;;;;;;;;;-11.75;79.30;100842.38;5117817;28;19967;-70
2022/12/13 02:01:41;;;;;;;;;;;;;;;-11.75;78.62;100838.03;5100848;28;19958;-70
2022/12/13 02:04:07;;;;;;;;;;;;;;;-11.76;79.61;100840.66;5097797;28;19912;-70
2022/12/13 02:06:37;;;;;;;;;;;;;;;-11.83;78.69;100837.38;5097931;28;19919;-70
2022/12/13 02:09:03;;;;;;;;;;;;;;;-11.85;79.35;100827.94;5098375;28;20379;-70
2022/12/13 02:11:29;;;;;;;;;;;;;;;-11.84;79.03;100835.69;5095338;28;19912;-70
2022/12/13 02:13:54;;;;;;;;;;;;;;;-11.82;79.38;100831.31;5116926;28;20379;-70
2022/12/13 02:16:29;;;;;;;;;;;;;;;-11.79;79.13;100833.81;5118436;28;19943;-70
2022/12/13 02:19:13;;;;;;;;;;;;;;;-11.79;78.48;100835.53;5113711;28;19916;-70
2022/12/13 02:21:44;;;;;;;;;;;;;;;-11.79;78.82;100823.47;5096490;28;19919;-70
2022/12/13 02:24:28;;;;;;;;;;;;;;;-11.84;78.60;100821.91;5096148;28;19916;-70
2022/12/13 02:26:56;;;;;;;;;;;;;;;-11.64;78.10;100821.31;5097999;28;20049;-70
2022/12/13 02:29:40;;;;;;;;;;;;;;;-11.71;77.71;100815.47;5096154;28;19919;-69
2022/12/13 02:32:27;;;;;;;;;;;;;;;-11.70;78.24;100809.38;5095414;28;19916;-70
2022/12/13 02:35:01;;;;;;;;;;;;;;;-11.83;78.42;100813.22;5075847;28;19912;-70
2022/12/13 02:37:31;;;;;;;;;;;;;;;-11.94;78.04;100803.19;5075806;28;20377;-70
2022/12/13 02:40:04;;;;;;;;;;;;;;;-11.94;78.54;100804.06;5075864;28;20291;-70
2022/12/13 02:42:48;;;;;;;;;;;;;;;-11.99;78.81;100792.97;5075645;28;20082;-71
2022/12/13 02:45:16;;;;;;;;;;;;;;;-12.05;79.34;100793.16;5076231;28;19931;-70
2022/12/13 02:47:43;;;;;;;;;;;;;;;-12.07;79.70;100794.91;5075914;28;20416;-70
2022/12/13 02:50:09;;;;;;;;;;;;;;;-12.11;79.12;100789.00;5076316;28;19913;-70
2022/12/13 02:52:34;;;;;;;;;;;;;;;-12.08;79.19;100782.88;5093992;28;19922;-70
2022/12/13 02:55:05;;;;;;;;;;;;;;;-12.06;79.67;100769.88;5106645;28;20023;-70
2022/12/13 02:57:30;;;;;;;;;;;;;;;-12.00;79.34;100774.88;5096209;28;19912;-70
2022/12/13 02:59:57;;;;;;;;;;;;;;;-12.01;79.02;100779.22;5109751;28;19922;-70
2022/12/13 03:02:31;;;;;;;;;;;;;;;-12.02;78.90;100777.50;5094964;28;19912;-70
2022/12/13 03:08:00;;;;;;;;;;;;;;;-12.04;79.02;100770.69;5092935;28;19920;-70
2022/12/13 03:10:32;;;;;;;;;;;;;;;-12.10;79.50;100763.94;5076159;28;20295;-70
2022/12/13 03:15:54;;;;;;;;;;;;;;;-12.04;79.34;100758.59;5078243;28;20421;-69
2022/12/13 03:18:21;;;;;;;;;;;;;;;-12.12;78.58;100755.38;5095684;28;19916;-69
2022/12/13 03:20:48;;;;;;;;;;;;;;;-12.17;78.64;100757.22;5095460;28;19912;-69
2022/12/13 03:23:14;;;;;;;;;;;;;;;-12.13;79.24;100748.50;5094171;28;20378;-70
2022/12/13 03:25:43;;;;;;;;;;;;;;;-12.05;78.87;100751.72;5095260;28;19919;-70
2022/12/13 03:28:08;;;;;;;;;;;;;;;-12.03;79.29;100734.41;5105543;28;20016;-69
2022/12/13 03:30:34;;;;;;;;;;;;;;;-12.00;79.01;100734.31;5100389;28;19919;-70
2022/12/13 03:32:59;;;;;;;;;;;;;;;-12.02;78.40;100727.47;5095036;28;19946;-70
2022/12/13 03:35:25;;;;;;;;;;;;;;;-12.03;78.87;100728.38;5095848;28;19961;-70
2022/12/13 03:37:50;;;;;;;;;;;;;;;-12.00;79.43;100721.34;5095555;28;19999;-70
2022/12/13 03:40:16;;;;;;;;;;;;;;;-11.98;78.41;100711.81;5095307;28;20322;-70
2022/12/13 03:42:41;;;;;;;;;;;;;;;-12.06;77.83;100710.34;5094008;28;20364;-70
2022/12/13 03:45:07;;;;;;;;;;;;;;;-12.13;78.33;100702.75;5093791;28;20041;-70
2022/12/13 03:47:32;;;;;;;;;;;;;;;-12.11;78.45;100700.97;5094167;28;19912;-70
2022/12/13 03:49:57;;;;;;;;;;;;;;;-12.17;77.62;100703.72;5085637;28;19912;-70
2022/12/13 03:52:22;;;;;;;;;;;;;;;-12.13;78.11;100696.72;5091334;28;19918;-70
2022/12/13 03:54:48;;;;;;;;;;;;;;;-12.09;78.21;100691.44;5101572;28;19912;-70
2022/12/13 03:57:14;;;;;;;;;;;;;;;-12.05;78.13;100694.78;5114796;28;19911;-70
2022/12/13 03:59:39;;;;;;;;;;;;;;;-12.03;78.01;100692.13;5112352;28;19916;-70
2022/12/13 04:02:05;;;;;;;;;;;;;;;-12.03;77.97;100690.41;5092826;28;20322;-70
2022/12/13 04:04:30;;;;;;;;;;;;;;;-11.99;77.60;100691.16;5089071;28;19919;-70
2022/12/13 04:06:55;;;;;;;;;;;;;;;-12.02;78.44;100684.31;5078665;28;19962;-70
2022/12/13 04:09:21;;;;;;;;;;;;;;;-12.08;77.81;100679.31;5077434;28;20379;-70
2022/12/13 04:14:30;;;;;;;;;;;;;;;-12.16;78.23;100681.31;5094590;28;19919;-70
2022/12/13 04:16:55;;;;;;;;;;;;;;;-12.19;78.16;100677.03;5094795;28;19916;-70
2022/12/13 04:19:20;;;;;;;;;;;;;;;-12.14;78.95;100682.09;5094161;28;20003;-70
2022/12/13 04:21:46;;;;;;;;;;;;;;;-12.15;78.77;100670.88;5094385;28;19912;-70
2022/12/13 04:24:11;;;;;;;;;;;;;;;-12.17;78.97;100677.84;5094353;28;19919;-70
2022/12/13 04:26:36;;;;;;;;;;;;;;;-12.26;78.92;100665.16;5094211;28;19958;-70
2022/12/13 04:29:01;;;;;;;;;;;;;;;-12.34;79.58;100669.72;5092835;28;19920;-70
2022/12/13 04:31:27;;;;;;;;;;;;;;;-12.40;79.42;100667.31;5092664;28;19912;-70
2022/12/13 04:33:52;;;;;;;;;;;;;;;-12.42;80.19;100654.41;5094018;28;20272;-70
2022/12/13 04:36:18;;;;;;;;;;;;;;;-12.31;80.29;100654.09;5093396;28;20364;-70
2022/12/13 04:38:47;;;;;;;;;;;;;;;-12.27;79.83;100648.81;5093473;28;19912;-69
2022/12/13 04:41:14;;;;;;;;;;;;;;;-12.31;79.71;100639.44;5094457;28;19920;-70
2022/12/13 04:43:39;;;;;;;;;;;;;;;-12.33;79.11;100633.47;5094609;28;19916;-70
2022/12/13 04:46:04;;;;;;;;;;;;;;;-12.37;79.51;100639.59;5094911;28;19935;-70
2022/12/13 04:48:31;;;;;;;;;;;;;;;-12.42;79.57;100627.69;5094713;28;19970;-70
2022/12/13 04:50:57;;;;;;;;;;;;;;;-12.52;79.16;100627.09;5094801;28;19950;-70
2022/12/13 04:53:22;;;;;;;;;;;;;;;-12.53;79.69;100628.84;5109748;28;20322;-70
2022/12/13 04:55:47;;;;;;;;;;;;;;;-12.59;79.97;100617.81;5080154;28;20279;-70
2022/12/13 04:58:12;;;;;;;;;;;;;;;-12.61;80.03;100611.84;5092948;28;19919;-70
2022/12/13 05:00:39;;;;;;;;;;;;;;;-12.63;79.87;100603.28;5089172;28;20368;-70
2022/12/13 05:03:04;;;;;;;;;;;;;;;-12.65;80.50;100611.06;5090500;28;19916;-70
2022/12/13 05:05:29;;;;;;;;;;;;;;;-12.70;80.53;100608.63;5093705;28;19922;-70
2022/12/13 05:07:54;;;;;;;;;;;;;;;-12.76;80.11;100595.84;5093626;28;19912;-69
2022/12/13 05:10:20;;;;;;;;;;;;;;;-12.75;80.65;100586.38;5093452;28;19943;-69
2022/12/13 05:12:45;;;;;;;;;;;;;;;-12.70;80.56;100582.78;5093283;28;20390;-70
2022/12/13 05:15:10;;;;;;;;;;;;;;;-12.56;81.42;100582.38;5093171;28;19912;-69
2022/12/13 05:17:35;;;;;;;;;;;;;;;-12.59;80.26;100577.31;5096518;28;19920;-69
2022/12/13 05:20:01;;;;;;;;;;;;;;;-12.67;80.29;100580.06;5112461;28;19911;-69
2022/12/13 05:22:26;;;;;;;;;;;;;;;-12.76;80.44;100587.25;5113935;28;19919;-69
2022/12/13 05:24:52;;;;;;;;;;;;;;;-12.80;80.71;100586.50;5112552;28;19954;-69
2022/12/13 05:27:17;;;;;;;;;;;;;;;-12.84;80.99;100578.88;5109089;28;19916;-69
2022/12/13 05:29:43;;;;;;;;;;;;;;;-12.90;81.01;100575.56;5093424;28;19919;-70
2022/12/13 05:32:08;;;;;;;;;;;;;;;-12.91;81.57;100575.59;5093101;28;19916;-69
2022/12/13 05:34:33;;;;;;;;;;;;;;;-13.31;81.35;100502.63;5093463;28;20329;-69
2022/12/13 05:36:58;;;;;;;;;;;;;;;-12.97;81.16;100568.88;5093368;28;19939;-69
2022/12/13 05:39:24;;;;;;;;;;;;;;;-13.05;80.50;100560.50;5093269;28;20295;-69
2022/12/13 05:41:49;;;;;;;;;;;;;;;-13.06;81.33;100559.63;5091681;28;19931;-69
2022/12/13 05:44:14;;;;;;;;;;;;;;;-13.08;81.21;100560.56;5093272;28;19912;-69
2022/12/13 05:46:40;;;;;;;;;;;;;;;-13.10;81.17;100549.41;5092309;28;19944;-69
2022/12/13 05:49:05;;;;;;;;;;;;;;;-13.16;80.78;100547.84;5093328;28;19915;-69
2022/12/13 05:51:30;;;;;;;;;;;;;;;-13.18;81.11;100556.53;5093526;28;19912;-70
2022/12/13 05:53:56;;;;;;;;;;;;;;;-13.26;81.08;100561.88;5112643;28;19918;-70
2022/12/13 05:56:21;;;;;;;;;;;;;;;-13.31;81.46;100558.63;5092655;28;19916;-70
2022/12/13 05:58:46;;;;;;;;;;;;;;;-13.33;81.82;100560.38;5073431;28;19965;-70
2022/12/13 06:01:12;;;;;;;;;;;;;;;-13.18;81.88;100559.97;5073413;28;19913;-70
2022/12/13 06:03:38;;;;;;;;;;;;;;;-13.16;81.64;100555.59;5084888;28;19923;-70
2022/12/13 06:06:05;;;;;;;;;;;;;;;-13.22;81.02;100558.34;5094504;28;20241;-70
2022/12/13 06:08:30;;;;;;;;;;;;;;;-13.23;81.34;100558.41;5095913;28;19916;-70
2022/12/13 06:10:57;;;;;;;;;;;;;;;-13.32;81.56;100560.34;5117124;28;19938;-70
2022/12/13 06:13:22;;;;;;;;;;;;;;;-13.31;81.84;100548.31;5115633;28;19965;-70
2022/12/13 06:15:48;;;;;;;;;;;;;;;-13.33;81.12;100550.03;5117152;28;19912;-70
2022/12/13 06:18:14;;;;;;;;;;;;;;;-13.37;81.01;100551.03;5117122;28;20337;-70
2022/12/13 06:20:39;;;;;;;;;;;;;;;-13.40;81.36;100548.53;5102126;28;20010;-70
2022/12/13 06:23:04;;;;;;;;;;;;;;;-13.41;81.30;100555.41;5095345;28;19912;-70
2022/12/13 06:25:29;;;;;;;;;;;;;;;-13.43;81.29;100553.78;5096636;28;20374;-70
2022/12/13 06:27:55;;;;;;;;;;;;;;;-13.36;81.51;100557.91;5105490;28;19912;-70
2022/12/13 06:30:20;;;;;;;;;;;;;;;-13.35;81.31;100551.81;5117005;28;19912;-70
2022/12/13 06:32:51;;;;;;;;;;;;;;;-13.36;81.75;100543.25;5107191;28;20078;-70
2022/12/13 06:35:16;;;;;;;;;;;;;;;-13.40;81.40;100540.78;5088041;28;19973;-70
2022/12/13 06:37:42;;;;;;;;;;;;;;;-13.41;81.68;100529.59;5084852;28;19920;-70
2022/12/13 06:40:07;;;;;;;;;;;;;;;-13.41;81.38;100542.50;5097306;28;19920;-70
2022/12/13 06:42:32;;;;;;;;;;;;;;;-13.38;81.79;100533.84;5097338;28;19923;-70
2022/12/13 06:44:58;;;;;;;;;;;;;;;-13.42;81.56;100542.56;5096571;28;20386;-69
2022/12/13 06:47:26;;;;;;;;;;;;;;;-13.43;81.67;100533.13;5097431;28;19912;-68
2022/12/13 06:49:51;;;;;;;;;;;;;;;-13.32;81.95;100536.25;5096253;28;19920;-69
2022/12/13 06:52:17;;;;;;;;;;;;;;;-13.25;80.93;100533.44;5102066;28;20370;-68
2022/12/13 06:54:42;;;;;;;;;;;;;;;-13.19;81.21;100527.25;5091199;28;19934;-69
2022/12/13 06:57:08;;;;;;;;;;;;;;;-13.07;80.55;100526.94;5116137;28;19912;-69
2022/12/13 06:59:33;;;;;;;;;;;;;;;-12.84;81.03;100520.25;5116135;28;19922;-69
2022/12/13 07:01:59;;;;;;;;;;;;;;;-12.76;80.63;100520.88;5116157;28;19915;-69
2022/12/13 07:04:24;;;;;;;;;;;;;;;-12.72;80.17;100524.22;5097797;28;20311;-68
2022/12/13 07:06:49;;;;;;;;;;;;;;;-12.64;80.38;100521.44;5095873;28;19916;-69
2022/12/13 07:09:14;;;;;;;;;;;;;;;-12.75;79.52;100520.00;5095411;28;20406;-69
2022/12/13 07:11:40;;;;;;;;;;;;;;;-12.82;79.59;100513.31;5095376;28;20318;-68
2022/12/13 07:14:05;;;;;;;;;;;;;;;-12.85;79.54;100513.38;5094598;28;19920;-68
2022/12/13 07:16:30;;;;;;;;;;;;;;;-12.94;79.38;100508.50;5095248;28;19912;-68
2022/12/13 07:18:56;;;;;;;;;;;;;;;-13.01;79.56;100504.41;5094972;28;20404;-68
2022/12/13 07:21:21;;;;;;;;;;;;;;;-13.07;80.08;100497.66;5095286;28;20356;-68
2022/12/13 07:23:46;;;;;;;;;;;;;;;-13.13;80.34;100495.22;5094981;28;19981;-68
2022/12/13 07:26:12;;;;;;;;;;;;;;;-13.24;79.79;100487.78;5095239;28;19912;-68
2022/12/13 07:28:37;;;;;;;;;;;;;;;-13.33;79.84;100493.22;5109331;28;19951;-68
2022/12/13 07:31:04;;;;;;;;;;;;;;;-13.42;79.52;100488.34;5113940;28;19912;-68
2022/12/13 07:33:29;;;;;;;;;;;;;;;-13.49;79.89;100478.16;5103950;28;19922;-69
2022/12/13 07:36:10;;;;;;;;;;;;;;;-13.49;80.44;100490.22;5095008;28;19912;-69
2022/12/13 07:38:36;;;;;;;;;;;;;;;-13.52;80.59;100486.00;5095022;28;19912;-69
2022/12/13 07:41:01;;;;;;;;;;;;;;;-13.53;81.12;100481.69;5094643;28;19995;-69
2022/12/13 07:43:28;;;;;;;;;;;;;;;-13.53;80.80;100479.13;5094868;28;19938;-69
2022/12/13 07:45:53;;;;;;;;;;;;;;;-13.55;81.01;100480.06;5095908;28;19912;-69
2022/12/13 07:48:18;;;;;;;;;;;;;;;-13.57;81.37;100477.50;5094451;28;19957;-69
2022/12/13 07:50:44;;;;;;;;;;;;;;;-13.59;81.41;100481.00;5078969;28;19912;-69
2022/12/13 07:53:09;;;;;;;;;;;;;;;-13.62;81.53;100476.78;5102718;28;19920;-69
2022/12/13 07:55:35;;;;;;;;;;;;;;;-13.58;81.78;100473.22;5100102;28;19919;-69
2022/12/13 07:58:01;;;;;;;;;;;;;;;-13.60;81.33;100474.16;5095103;28;19912;-69
2022/12/13 08:00:26;;;;;;;;;;;;;;;-13.58;81.74;100472.38;5093463;28;20313;-69
2022/12/13 08:02:52;;;;;;;;;;;;;;;-13.51;82.15;100463.59;5089428;28;19916;-69
2022/12/13 08:05:17;;;;;;;;;;;;;;;-13.42;82.24;100458.19;5094237;28;19923;-69
2022/12/13 08:07:42;;;;;;;;;;;;;;;-13.39;81.22;100458.06;5092013;28;20379;-69
2022/12/13 08:10:07;;;;;;;;;;;;;;;-13.33;82.16;100444.13;5074473;28;20061;-69
2022/12/13 08:12:33;;;;;;;;;;;;;;;-13.19;82.19;100443.72;5094083;28;20329;-69
2022/12/13 08:14:58;;;;;;;;;;;;;;;-13.08;81.58;100434.78;5094575;28;19958;-69
2022/12/13 08:17:23;;;;;;;;;;;;;;;-12.96;81.85;100440.47;5094325;28;19954;-69
2022/12/13 08:19:49;;;;;;;;;;;;;;;-12.94;80.98;100444.72;5094128;28;19916;-69
2022/12/13 08:22:14;;;;;;;;;;;;;;;-12.90;81.33;100451.50;5094041;28;19948;-69
2022/12/13 08:24:39;;;;;;;;;;;;;;;-12.77;81.66;100446.81;5094118;28;20269;-69
2022/12/13 08:27:04;;;;;;;;;;;;;;;-12.53;81.44;100452.97;5093958;28;19955;-69
2022/12/13 08:29:31;;;;;;;;;;;;;;;-12.30;81.08;100453.97;5093608;28;19957;-69
2022/12/13 08:31:56;;;;;;;;;;;;;;;-12.18;80.60;100440.66;5093876;28;19916;-69
2022/12/13 08:34:22;;;;;;;;;;;;;;;-12.06;80.32;100449.75;5093480;28;20399;-67
2022/12/13 08:36:47;;;;;;;;;;;;;;;-11.94;80.21;100448.47;5092725;28;19920;-68
2022/12/13 08:39:12;;;;;;;;;;;;;;;-11.78;79.79;100441.03;5094172;28;19919;-68
2022/12/13 08:41:41;;;;;;;;;;;;;;;-11.67;79.45;100436.31;5092181;28;20372;-68
2022/12/13 08:44:06;;;;;;;;;;;;;;;-11.59;79.23;100439.47;5093901;28;20299;-68
2022/12/13 08:46:31;;;;;;;;;;;;;;;-11.50;78.91;100444.31;5080622;28;19913;-68
2022/12/13 08:48:56;;;;;;;;;;;;;;;-11.43;79.01;100446.72;5073309;28;19912;-68
2022/12/13 08:51:23;;;;;;;;;;;;;;;-11.38;78.51;100448.25;5073479;28;20319;-68
2022/12/13 08:53:49;;;;;;;;;;;;;;;-11.27;78.35;100445.28;5111991;28;19920;-69
2022/12/13 08:56:16;;;;;;;;;;;;;;;-11.19;78.24;100437.22;5073179;28;19925;-69
2022/12/13 08:58:41;;;;;;;;;;;;;;;-11.10;77.77;100435.13;5073621;28;19913;-68
2022/12/13 09:01:07;;;;;;;;;;;;;;;-11.04;77.51;100425.44;5085236;28;20267;-68
2022/12/13 09:03:33;;;;;;;;;;;;;;;-10.98;77.26;100420.00;5093663;28;20406;-69
2022/12/13 09:06:24;;;;;;;;;;;;;;;-10.93;77.05;100410.31;5093619;28;19912;-69
2022/12/13 09:08:51;;;;;;;;;;;;;;;-10.85;76.30;100405.66;5090265;28;19920;-69
2022/12/13 09:11:17;;;;;;;;;;;;;;;-10.75;75.94;100399.22;5093266;28;20272;-69
2022/12/13 09:13:43;;;;;;;;;;;;;;;-10.71;75.79;100399.97;5092249;28;19959;-69
2022/12/13 09:16:13;;;;;;;;;;;;;;;-10.68;75.94;100386.00;5092277;28;19945;-68
2022/12/13 09:18:38;;;;;;;;;;;;;;;-10.63;75.65;100390.13;5093575;28;19938;-69
2022/12/13 09:21:05;;;;;;;;;;;;;;;-10.56;75.32;100380.34;5093358;28;20253;-69
2022/12/13 09:23:31;;;;;;;;;;;;;;;-10.48;75.04;100375.69;5093114;28;20279;-69
2022/12/13 09:25:57;;;;;;;;;;;;;;;-10.41;74.62;100369.34;5093575;28;19912;-68
2022/12/13 09:28:22;;;;;;;;;;;;;;;-10.37;74.98;100373.47;5105959;28;19918;-68
2022/12/13 09:30:48;;;;;;;;;;;;;;;-10.34;75.12;100369.94;5113774;28;20342;-69
2022/12/13 09:33:13;;;;;;;;;;;;;;;-10.28;75.14;100374.00;5104715;28;20315;-68
2022/12/13 09:35:38;;;;;;;;;;;;;;;-10.17;75.50;100366.59;5093493;28;19912;-68
2022/12/13 09:38:04;;;;;;;;;;;;;;;-9.98;75.16;100372.69;5093168;28;20395;-69
2022/12/13 09:40:30;;;;;;;;;;;;;;;-9.79;75.17;100359.75;5092876;28;20011;-69
2022/12/13 09:42:56;;;;;;;;;;;;;;;-9.66;74.97;100359.22;5082845;28;19917;-69
2022/12/13 09:45:22;;;;;;;;;;;;;;;-9.48;75.05;100347.19;5077455;28;19917;-69
2022/12/13 09:47:49;;;;;;;;;;;;;;;-9.33;74.00;100359.47;5077392;28;19947;-69
2022/12/13 09:50:20;;;;;;;;;;;;;;;-9.28;73.64;100352.31;5077635;28;20377;-69
2022/12/13 09:52:46;;;;;;;;;;;;;;;-9.30;73.35;100342.88;5098194;28;20007;-68
2022/12/13 09:55:17;;;;;;;;;;;;;;;-9.31;73.79;100351.63;5105799;28;19955;-68
2022/12/13 09:57:43;;;;;;;;;;;;;;;-9.31;73.93;100334.25;5095491;28;19912;-67
2022/12/13 10:00:12;;;;;;;;;;;;;;;-9.26;74.05;100334.88;5096457;28;19961;-67
2022/12/13 10:02:43;;;;;;;;;;;;;;;-9.23;74.13;100334.75;5096581;28;19912;-68
2022/12/13 10:05:13;;;;;;;;;;;;;;;-9.17;73.92;100337.06;5096833;28;19912;-67
2022/12/13 10:07:38;;;;;;;;;;;;;;;-9.14;73.70;100333.47;5096822;28;20009;-68
2022/12/13 10:10:04;;;;;;;;;;;;;;;-9.09;73.62;100328.91;5096525;28;19919;-68
2022/12/13 10:12:31;;;;;;;;;;;;;;;-9.02;74.22;100327.69;5096842;28;19920;-68
2022/12/13 10:14:58;;;;;;;;;;;;;;;-8.94;74.08;100324.72;5095463;28;19919;-69
2022/12/13 10:17:26;;;;;;;;;;;;;;;-8.88;73.58;100318.38;5096868;28;19916;-68
2022/12/13 10:19:51;;;;;;;;;;;;;;;-8.86;73.25;100321.75;5096357;28;19951;-68
2022/12/13 10:22:19;;;;;;;;;;;;;;;-8.90;72.92;100315.03;5096792;28;19919;-68
2022/12/13 10:24:51;;;;;;;;;;;;;;;-8.92;73.38;100312.50;5096345;28;19916;-68
2022/12/13 10:27:39;;;;;;;;;;;;;;;-8.89;72.90;100304.53;5099566;28;20358;-68
2022/12/13 10:30:05;;;;;;;;;;;;;;;-8.86;73.50;100291.38;5108324;28;20408;-68
2022/12/13 10:32:33;;;;;;;;;;;;;;;-8.83;73.30;100293.84;5114224;28;19920;-68
2022/12/13 10:34:59;;;;;;;;;;;;;;;-8.82;73.87;100286.84;5096208;28;19912;-68
2022/12/13 10:37:25;;;;;;;;;;;;;;;-8.83;72.80;100280.00;5096276;28;19995;-68
2022/12/13 10:39:50;;;;;;;;;;;;;;;-8.82;73.56;100272.13;5076667;28;20027;-68
2022/12/13 10:42:16;;;;;;;;;;;;;;;-8.82;73.40;100271.25;5074363;28;20019;-68
2022/12/13 10:44:42;;;;;;;;;;;;;;;-8.80;73.74;100265.06;5075838;28;19920;-68
2022/12/13 10:47:17;;;;;;;;;;;;;;;-8.79;73.70;100261.53;5075392;28;20368;-68
2022/12/13 10:49:56;;;;;;;;;;;;;;;-8.77;73.48;100267.50;5074323;28;20360;-69
2022/12/13 10:52:29;;;;;;;;;;;;;;;-8.72;74.16;100261.25;5089332;28;19915;-68
2022/12/13 10:54:56;;;;;;;;;;;;;;;-8.69;73.97;100251.53;5107070;28;19916;-69
2022/12/13 10:57:21;;;;;;;;;;;;;;;-8.69;74.50;100269.75;5095842;28;19998;-69
2022/12/13 10:59:48;;;;;;;;;;;;;;;-8.69;74.67;100261.94;5095755;28;20002;-69
2022/12/13 11:02:31;;;;;;;;;;;;;;;-8.68;74.58;100248.00;5090392;28;19917;-68
2022/12/13 11:04:59;;;;;;;;;;;;;;;-8.67;74.60;100254.03;5093086;28;19927;-69
2022/12/13 11:07:28;;;;;;;;;;;;;;;-8.68;74.64;100239.34;5096367;28;19916;-69
2022/12/13 11:09:54;;;;;;;;;;;;;;;-8.70;75.01;100242.03;5096279;28;19938;-68
2022/12/13 11:12:22;;;;;;;;;;;;;;;-8.69;75.15;100237.66;5096323;28;19920;-69
2022/12/13 11:14:56;;;;;;;;;;;;;;;-8.65;75.81;100236.59;5096119;28;19913;-68
2022/12/13 11:17:22;;;;;;;;;;;;;;;-8.62;75.75;100236.44;5094243;28;19912;-68
2022/12/13 11:19:50;;;;;;;;;;;;;;;-8.58;75.95;100236.22;5094249;28;19912;-68
2022/12/13 11:22:29;;;;;;;;;;;;;;;-8.51;76.08;100233.28;5095247;28;19912;-68
2022/12/13 11:25:08;;;;;;;;;;;;;;;-8.44;75.41;100221.66;5095673;28;19912;-68
2022/12/13 11:27:58;;;;;;;;;;;;;;;-8.36;75.48;100206.44;5095580;28;19951;-68
2022/12/13 11:30:45;;;;;;;;;;;;;;;-8.27;76.28;100185.13;5095239;28;19944;-68
2022/12/13 11:33:35;;;;;;;;;;;;;;;-8.21;75.96;100181.34;5095230;28;19926;-68
2022/12/13 11:36:00;;;;;;;;;;;;;;;-8.17;75.87;100190.72;5074753;28;20379;-68
2022/12/13 11:38:34;;;;;;;;;;;;;;;-8.19;75.54;100198.59;5074713;28;19913;-68
2022/12/13 11:41:10;;;;;;;;;;;;;;;-8.19;75.33;100182.97;5074328;28;19932;-68
2022/12/13 11:43:47;;;;;;;;;;;;;;;-8.22;75.80;100177.09;5074685;28;19912;-68
2022/12/13 11:46:16;;;;;;;;;;;;;;;-8.24;76.18;100181.53;5074610;28;19912;-68
2022/12/13 11:48:50;;;;;;;;;;;;;;;-8.27;75.74;100189.50;5073381;28;19934;-69
2022/12/13 11:51:20;;;;;;;;;;;;;;;-8.33;75.60;100174.19;5074631;28;19916;-69
2022/12/13 11:54:18;;;;;;;;;;;;;;;-8.37;75.93;100160.50;5110987;28;19916;-69
2022/12/13 11:56:44;;;;;;;;;;;;;;;-8.41;76.34;100152.00;5040446;28;19927;-69
2022/12/13 11:59:14;;;;;;;;;;;;;;;-8.42;76.33;100145.13;5074403;28;19920;-69
2022/12/13 12:01:46;;;;;;;;;;;;;;;-8.38;76.67;100151.00;5089927;28;19951;-69
2022/12/13 12:04:40;;;;;;;;;;;;;;;-8.35;76.89;100144.81;5093620;28;20006;-69
2022/12/13 12:07:10;;;;;;;;;;;;;;;-8.30;76.76;100142.78;5080946;28;19919;-69
2022/12/13 12:09:38;;;;;;;;;;;;;;;-8.29;76.94;100145.28;5094232;28;19950;-69
2022/12/13 12:12:11;;;;;;;;;;;;;;;-8.25;76.84;100133.78;5094096;28;19923;-69
2022/12/13 12:14:48;;;;;;;;;;;;;;;-8.27;75.72;100133.03;5094975;28;20326;-68
2022/12/13 12:17:15;;;;;;;;;;;;;;;-8.27;76.36;100146.06;5094295;28;19999;-69
2022/12/13 12:19:45;;;;;;;;;;;;;;;-8.22;76.48;100143.22;5094552;28;20628;-69
2022/12/13 12:22:23;;;;;;;;;;;;;;;-8.18;77.08;100136.91;5093966;28;19919;-69
2022/12/13 12:24:56;;;;;;;;;;;;;;;-8.16;77.37;100132.47;5094256;28;20006;-69
2022/12/13 12:27:56;;;;;;;;;;;;;;;-8.14;77.14;100125.41;5093902;28;19965;-69
2022/12/13 12:30:26;;;;;;;;;;;;;;;-8.11;77.21;100127.03;5051516;28;20491;-69
2022/12/13 12:32:57;;;;;;;;;;;;;;;-8.11;77.21;100127.03;5086272;28;20213;-69
2022/12/13 12:35:28;;;;;;;;;;;;;;;-8.17;76.96;100123.81;5092692;28;20328;-69
2022/12/13 12:37:53;;;;;;;;;;;;;;;-8.20;77.03;100123.97;5094367;28;19912;-69
2022/12/13 12:40:32;;;;;;;;;;;;;;;-8.20;77.41;100121.38;5093923;28;20299;-69